createdAt,value
2023-03-25T00:00:18.194Z,11.4
2023-03-25T00:01:18.099Z,11.3
2023-03-25T00:02:18.297Z,11.3
2023-03-25T00:03:18.298Z,11.3
2023-03-25T00:04:20.356Z,11.3
2023-03-25T00:05:18.010Z,11.3
2023-03-25T00:06:18.126Z,11.3
2023-03-25T00:07:18.082Z,11.3
2023-03-25T00:08:18.055Z,11.3
2023-03-25T00:09:18.072Z,11.3
2023-03-25T00:10:18.084Z,11.3
2023-03-25T00:11:17.983Z,11.3
2023-03-25T00:12:19.587Z,11.3
2023-03-25T00:13:18.007Z,11.3
2023-03-25T00:14:18.056Z,11.3
2023-03-25T00:15:17.951Z,11.3
2023-03-25T00:16:17.957Z,11.3
2023-03-25T00:17:17.945Z,11.3
2023-03-25T00:18:18.018Z,11.3
2023-03-25T00:19:17.968Z,11.3
2023-03-25T00:20:18.109Z,11.3
2023-03-25T00:21:17.987Z,11.3
2023-03-25T00:22:18.023Z,11.3
2023-03-25T00:23:18.013Z,11.2
2023-03-25T00:24:18.061Z,11.2
2023-03-25T00:25:18.811Z,11.2
2023-03-25T00:26:17.957Z,11.2
2023-03-25T00:27:19.445Z,11.2
2023-03-25T00:28:17.921Z,11.2
2023-03-25T00:29:17.963Z,11.2
2023-03-25T00:30:17.952Z,11.2
2023-03-25T00:31:18.049Z,11.2
2023-03-25T00:32:17.968Z,11.1
2023-03-25T00:33:18.042Z,11.1
2023-03-25T00:34:17.966Z,11.1
2023-03-25T00:35:18.001Z,11.1
2023-03-25T00:36:17.957Z,11.1
2023-03-25T00:37:18.035Z,11.1
2023-03-25T00:38:18.013Z,11.1
2023-03-25T00:39:18.028Z,11.1
2023-03-25T00:40:17.938Z,11.1
2023-03-25T00:41:19.006Z,11.1
2023-03-25T00:42:17.893Z,11.0
2023-03-25T00:43:18.094Z,11.0
2023-03-25T00:44:17.934Z,11.0
2023-03-25T00:45:17.951Z,11.0
2023-03-25T00:46:18.056Z,11.0
2023-03-25T00:47:17.935Z,10.9
2023-03-25T00:48:18.010Z,10.9
2023-03-25T00:49:17.926Z,10.9
2023-03-25T00:50:18.097Z,10.9
2023-03-25T00:51:18.007Z,10.8
2023-03-25T00:52:19.367Z,10.8
2023-03-25T00:53:17.937Z,10.8
2023-03-25T00:54:17.915Z,10.7
2023-03-25T00:55:17.960Z,10.7
2023-03-25T00:56:17.928Z,10.7
2023-03-25T00:57:17.966Z,10.7
2023-03-25T00:58:17.916Z,10.6
2023-03-25T00:59:17.976Z,10.6
2023-03-25T01:00:17.898Z,10.6
2023-03-25T01:01:17.940Z,10.6
2023-03-25T01:02:18.163Z,10.6
2023-03-25T01:03:18.158Z,10.5
2023-03-25T01:04:17.892Z,10.5
2023-03-25T01:05:17.881Z,10.5
2023-03-25T01:06:17.948Z,10.5
2023-03-25T01:07:17.884Z,10.5
2023-03-25T01:08:17.937Z,10.5
2023-03-25T01:09:17.853Z,10.5
2023-03-25T01:10:17.866Z,10.5
2023-03-25T01:11:17.917Z,10.5
2023-03-25T01:12:17.878Z,10.5
2023-03-25T01:13:17.934Z,10.5
2023-03-25T01:14:17.845Z,10.5
2023-03-25T01:15:19.426Z,10.5
2023-03-25T01:16:18.036Z,10.5
2023-03-25T01:17:17.868Z,10.5
2023-03-25T01:18:17.981Z,10.5
2023-03-25T01:19:19.008Z,10.5
2023-03-25T01:20:17.861Z,10.5
2023-03-25T01:21:17.841Z,10.5
2023-03-25T01:22:17.931Z,10.5
2023-03-25T01:23:17.926Z,10.5
2023-03-25T01:24:17.987Z,10.5
2023-03-25T01:25:17.931Z,10.5
2023-03-25T01:26:17.876Z,10.5
2023-03-25T01:27:17.915Z,10.5
2023-03-25T01:28:17.813Z,10.5
2023-03-25T01:29:17.911Z,10.5
2023-03-25T01:30:17.835Z,10.5
2023-03-25T01:31:17.854Z,10.5
2023-03-25T01:32:17.943Z,10.5
2023-03-25T01:33:17.879Z,10.5
2023-03-25T01:34:18.052Z,10.5
2023-03-25T01:35:17.865Z,10.5
2023-03-25T01:36:18.001Z,10.5
2023-03-25T01:37:18.872Z,10.5
2023-03-25T01:38:17.917Z,10.5
2023-03-25T01:39:17.841Z,10.5
2023-03-25T01:40:17.808Z,10.4
2023-03-25T01:41:17.893Z,10.5
2023-03-25T01:42:17.918Z,10.5
2023-03-25T01:43:17.834Z,10.5
2023-03-25T01:44:17.864Z,10.5
2023-03-25T01:45:18.000Z,10.5
2023-03-25T01:46:17.977Z,10.5
2023-03-25T01:47:17.872Z,10.5
2023-03-25T01:48:17.838Z,10.5
2023-03-25T01:49:17.869Z,10.5
2023-03-25T01:50:17.812Z,10.5
2023-03-25T01:51:17.841Z,10.5
2023-03-25T01:52:17.847Z,10.5
2023-03-25T01:53:17.885Z,10.5
2023-03-25T01:54:17.876Z,10.5
2023-03-25T01:55:17.816Z,10.5
2023-03-25T01:56:18.228Z,10.5
2023-03-25T01:57:17.905Z,10.5
2023-03-25T01:58:18.065Z,10.5
2023-03-25T01:59:18.057Z,10.5
2023-03-25T02:00:18.519Z,10.5
2023-03-25T02:01:17.924Z,10.5
2023-03-25T02:02:18.017Z,10.5
2023-03-25T02:03:19.456Z,10.5
2023-03-25T02:04:19.989Z,10.5
2023-03-25T02:05:18.067Z,10.5
2023-03-25T02:06:17.805Z,10.5
2023-03-25T02:07:17.781Z,10.5
2023-03-25T02:08:17.821Z,10.5
2023-03-25T02:09:18.141Z,10.4
2023-03-25T02:10:17.839Z,10.4
2023-03-25T02:11:17.776Z,10.4
2023-03-25T02:12:17.843Z,10.4
2023-03-25T02:13:17.743Z,10.4
2023-03-25T02:14:19.894Z,10.4
2023-03-25T02:15:19.046Z,10.4
2023-03-25T02:16:21.862Z,10.4
2023-03-25T02:17:25.905Z,10.4
2023-03-25T02:18:19.094Z,10.4
2023-03-25T02:19:17.768Z,10.4
2023-03-25T02:20:17.887Z,10.4
2023-03-25T02:21:18.056Z,10.4
2023-03-25T02:22:17.913Z,10.4
2023-03-25T02:23:17.793Z,10.3
2023-03-25T02:24:17.918Z,10.3
2023-03-25T02:25:17.840Z,10.3
2023-03-25T02:26:17.846Z,10.3
2023-03-25T02:27:17.759Z,10.3
2023-03-25T02:28:17.750Z,10.3
2023-03-25T02:29:18.094Z,10.3
2023-03-25T02:30:19.722Z,10.3
2023-03-25T02:31:17.754Z,10.2
2023-03-25T02:32:28.864Z,10.2
2023-03-25T02:33:17.719Z,10.2
2023-03-25T02:34:17.808Z,10.2
2023-03-25T02:35:17.950Z,10.2
2023-03-25T02:36:17.768Z,10.2
2023-03-25T02:37:17.763Z,10.2
2023-03-25T02:38:19.606Z,10.2
2023-03-25T02:39:18.732Z,10.1
2023-03-25T02:40:18.818Z,10.1
2023-03-25T02:41:24.119Z,10.1
2023-03-25T02:42:17.782Z,10.1
2023-03-25T02:43:17.819Z,10.1
2023-03-25T02:44:17.762Z,10.1
2023-03-25T02:45:17.780Z,10.1
2023-03-25T02:46:17.895Z,10.1
2023-03-25T02:47:18.975Z,10.1
2023-03-25T02:48:17.745Z,10.1
2023-03-25T02:49:17.729Z,10.1
2023-03-25T02:50:17.893Z,10.1
2023-03-25T02:51:17.873Z,10.1
2023-03-25T02:52:18.301Z,10.1
2023-03-25T02:53:18.068Z,10.1
2023-03-25T02:54:17.752Z,10.1
2023-03-25T02:55:17.735Z,10.1
2023-03-25T02:56:17.738Z,10.0
2023-03-25T02:57:17.845Z,10.0
2023-03-25T02:58:17.778Z,10.0
2023-03-25T02:59:17.688Z,10.0
2023-03-25T03:00:17.735Z,10.0
2023-03-25T03:01:17.725Z,10.0
2023-03-25T03:02:17.799Z,10.0
2023-03-25T03:03:18.168Z,10.0
2023-03-25T03:04:17.702Z,10.0
2023-03-25T03:05:17.690Z,10.0
2023-03-25T03:06:17.911Z,10.0
2023-03-25T03:07:17.977Z,10.0
2023-03-25T03:08:17.702Z,10.0
2023-03-25T03:09:17.699Z,10.0
2023-03-25T03:10:17.705Z,10.0
2023-03-25T03:11:17.729Z,10.0
2023-03-25T03:12:17.724Z,10.0
2023-03-25T03:13:17.674Z,10.0
2023-03-25T03:14:17.799Z,10.0
2023-03-25T03:15:17.719Z,10.0
2023-03-25T03:16:17.801Z,10.0
2023-03-25T03:17:17.998Z,10.0
2023-03-25T03:18:17.847Z,10.0
2023-03-25T03:19:17.700Z,10.0
2023-03-25T03:20:19.270Z,10.0
2023-03-25T03:21:17.676Z,9.9
2023-03-25T03:22:17.660Z,9.9
2023-03-25T03:23:17.682Z,9.9
2023-03-25T03:24:17.671Z,9.9
2023-03-25T03:25:17.848Z,9.9
2023-03-25T03:26:17.700Z,9.9
2023-03-25T03:27:17.650Z,9.9
2023-03-25T03:28:17.667Z,9.9
2023-03-25T03:29:17.627Z,9.9
2023-03-25T03:30:17.729Z,9.9
2023-03-25T03:31:48.889Z,9.9
2023-03-25T03:32:17.677Z,9.9
2023-03-25T03:33:17.644Z,9.9
2023-03-25T03:34:17.642Z,9.8
2023-03-25T03:35:17.693Z,9.8
2023-03-25T03:36:17.895Z,9.8
2023-03-25T03:37:17.712Z,9.8
2023-03-25T03:38:17.651Z,9.8
2023-03-25T03:39:17.705Z,9.8
2023-03-25T03:40:17.661Z,9.8
2023-03-25T03:41:17.639Z,9.8
2023-03-25T03:42:17.645Z,9.8
2023-03-25T03:43:17.724Z,9.8
2023-03-25T03:44:17.616Z,9.8
2023-03-25T03:45:17.638Z,9.8
2023-03-25T03:46:17.671Z,9.7
2023-03-25T03:47:17.684Z,9.7
2023-03-25T03:48:17.582Z,9.7
2023-03-25T03:49:19.141Z,9.7
2023-03-25T03:50:17.599Z,9.7
2023-03-25T03:51:17.641Z,9.7
2023-03-25T03:52:17.708Z,9.7
2023-03-25T03:53:17.649Z,9.7
2023-03-25T03:54:17.613Z,9.7
2023-03-25T03:55:17.603Z,9.6
2023-03-25T03:56:17.635Z,9.6
2023-03-25T03:57:17.641Z,9.6
2023-03-25T03:58:17.783Z,9.6
2023-03-25T03:59:17.606Z,9.6
2023-03-25T04:00:17.594Z,9.6
2023-03-25T04:01:17.631Z,9.6
2023-03-25T04:02:17.695Z,9.5
2023-03-25T04:03:17.705Z,9.5
2023-03-25T04:04:17.602Z,9.5
2023-03-25T04:05:17.644Z,9.5
2023-03-25T04:06:17.629Z,9.5
2023-03-25T04:07:17.592Z,9.5
2023-03-25T04:08:17.587Z,9.5
2023-03-25T04:09:17.673Z,9.5
2023-03-25T04:10:17.616Z,9.5
2023-03-25T04:11:17.607Z,9.5
2023-03-25T04:12:17.603Z,9.4
2023-03-25T04:13:17.599Z,9.4
2023-03-25T04:14:18.835Z,9.4
2023-03-25T04:15:17.587Z,9.4
2023-03-25T04:16:17.620Z,9.4
2023-03-25T04:17:17.597Z,9.4
2023-03-25T04:18:17.592Z,9.4
2023-03-25T04:19:17.554Z,9.4
2023-03-25T04:20:17.714Z,9.4
2023-03-25T04:21:17.620Z,9.4
2023-03-25T04:22:17.649Z,9.3
2023-03-25T04:23:17.540Z,9.3
2023-03-25T04:24:17.539Z,9.3
2023-03-25T04:25:17.559Z,9.3
2023-03-25T04:26:17.599Z,9.3
2023-03-25T04:27:17.615Z,9.2
2023-03-25T04:28:17.653Z,9.2
2023-03-25T04:29:17.540Z,9.2
2023-03-25T04:30:17.543Z,9.2
2023-03-25T04:31:17.718Z,9.2
2023-03-25T04:32:17.588Z,9.2
2023-03-25T04:33:17.509Z,9.2
2023-03-25T04:34:17.581Z,9.2
2023-03-25T04:35:17.579Z,9.2
2023-03-25T04:36:17.570Z,9.2
2023-03-25T04:37:17.589Z,9.1
2023-03-25T04:38:17.542Z,9.1
2023-03-25T04:39:17.521Z,9.1
2023-03-25T04:40:17.565Z,9.1
2023-03-25T04:41:17.589Z,9.1
2023-03-25T04:42:17.692Z,9.1
2023-03-25T04:43:17.553Z,9.1
2023-03-25T04:44:17.549Z,9.1
2023-03-25T04:45:17.552Z,9.1
2023-03-25T04:46:17.602Z,9.1
2023-03-25T04:47:17.494Z,9.1
2023-03-25T04:48:17.559Z,9.0
2023-03-25T04:49:17.609Z,9.0
2023-03-25T04:50:17.554Z,9.0
2023-03-25T04:51:17.542Z,9.0
2023-03-25T04:52:17.524Z,9.0
2023-03-25T04:53:17.643Z,9.0
2023-03-25T04:54:18.364Z,9.0
2023-03-25T04:55:17.556Z,9.0
2023-03-25T04:56:17.504Z,9.0
2023-03-25T04:57:17.636Z,8.9
2023-03-25T04:58:17.482Z,8.9
2023-03-25T04:59:17.510Z,8.9
2023-03-25T05:00:17.507Z,8.9
2023-03-25T05:01:17.505Z,8.9
2023-03-25T05:02:17.497Z,8.9
2023-03-25T05:03:17.509Z,8.9
2023-03-25T05:04:17.835Z,8.9
2023-03-25T05:05:17.413Z,8.9
2023-03-25T05:06:17.479Z,8.9
2023-03-25T05:07:17.471Z,8.9
2023-03-25T05:08:17.499Z,8.9
2023-03-25T05:09:17.535Z,8.9
2023-03-25T05:10:17.500Z,8.9
2023-03-25T05:11:17.515Z,8.9
2023-03-25T05:12:17.658Z,8.9
2023-03-25T05:13:17.505Z,8.9
2023-03-25T05:14:17.468Z,8.9
2023-03-25T05:15:17.673Z,8.9
2023-03-25T05:16:17.560Z,8.9
2023-03-25T05:17:17.631Z,8.9
2023-03-25T05:18:17.520Z,8.9
2023-03-25T05:19:17.533Z,8.8
2023-03-25T05:20:17.448Z,8.8
2023-03-25T05:21:17.483Z,8.8
2023-03-25T05:22:17.466Z,8.8
2023-03-25T05:23:17.586Z,8.8
2023-03-25T05:24:17.498Z,8.8
2023-03-25T05:25:17.475Z,8.8
2023-03-25T05:26:17.446Z,8.8
2023-03-25T05:27:17.426Z,8.8
2023-03-25T05:28:17.567Z,8.8
2023-03-25T05:29:17.485Z,8.8
2023-03-25T05:30:17.463Z,8.8
2023-03-25T05:31:17.496Z,8.8
2023-03-25T05:32:17.567Z,8.8
2023-03-25T05:33:17.543Z,8.8
2023-03-25T05:34:17.772Z,8.8
2023-03-25T05:35:17.426Z,8.8
2023-03-25T05:36:17.433Z,8.8
2023-03-25T05:37:17.653Z,8.8
2023-03-25T05:38:17.509Z,8.8
2023-03-25T05:39:17.406Z,8.8
2023-03-25T05:40:17.433Z,8.8
2023-03-25T05:41:17.398Z,8.8
2023-03-25T05:42:17.439Z,8.8
2023-03-25T05:43:17.496Z,8.8
2023-03-25T05:44:17.479Z,8.8
2023-03-25T05:45:17.468Z,8.8
2023-03-25T05:46:17.477Z,8.8
2023-03-25T05:47:17.440Z,8.8
2023-03-25T05:48:17.590Z,8.9
2023-03-25T05:49:17.520Z,8.9
2023-03-25T05:50:17.422Z,8.9
2023-03-25T05:51:17.481Z,8.9
2023-03-25T05:52:17.461Z,8.9
2023-03-25T05:53:17.494Z,8.9
2023-03-25T05:54:17.497Z,8.9
2023-03-25T05:55:20.115Z,8.9
2023-03-25T05:56:17.398Z,9.0
2023-03-25T05:57:17.518Z,9.0
2023-03-25T05:58:17.418Z,9.0
2023-03-25T05:59:17.432Z,9.0
2023-03-25T06:00:17.387Z,9.1
2023-03-25T06:01:32.000Z,9.1
2023-03-25T06:02:17.607Z,9.1
2023-03-25T06:03:17.524Z,9.1
2023-03-25T06:04:17.414Z,9.1
2023-03-25T06:05:17.370Z,9.1
2023-03-25T06:06:17.423Z,9.1
2023-03-25T06:07:17.388Z,9.1
2023-03-25T06:08:17.434Z,9.1
2023-03-25T06:09:17.391Z,9.1
2023-03-25T06:10:17.582Z,9.2
2023-03-25T06:11:17.378Z,9.2
2023-03-25T06:12:17.448Z,9.2
2023-03-25T06:13:17.406Z,9.2
2023-03-25T06:14:17.342Z,9.2
2023-03-25T06:15:17.460Z,9.2
2023-03-25T06:16:17.389Z,9.2
2023-03-25T06:17:17.353Z,9.2
2023-03-25T06:18:17.458Z,9.2
2023-03-25T06:19:17.367Z,9.3
2023-03-25T06:20:17.434Z,9.3
2023-03-25T06:21:17.357Z,9.3
2023-03-25T06:22:17.439Z,9.3
2023-03-25T06:23:17.431Z,9.4
2023-03-25T06:24:17.386Z,9.4
2023-03-25T06:25:17.366Z,9.4
2023-03-25T06:26:17.460Z,9.4
2023-03-25T06:27:17.433Z,9.4
2023-03-25T06:28:17.481Z,9.4
2023-03-25T06:29:26.958Z,9.5
2023-03-25T06:31:17.600Z,9.5
2023-03-25T06:32:17.530Z,9.5
2023-03-25T06:33:17.484Z,9.5
2023-03-25T06:34:17.401Z,9.5
2023-03-25T06:35:17.442Z,9.6
2023-03-25T06:36:17.364Z,9.6
2023-03-25T06:37:17.336Z,9.6
2023-03-25T06:38:17.326Z,9.6
2023-03-25T06:39:17.343Z,9.7
2023-03-25T06:40:17.447Z,9.7
2023-03-25T06:41:17.384Z,9.7
2023-03-25T06:42:17.342Z,9.7
2023-03-25T06:43:17.299Z,9.7
2023-03-25T06:44:17.317Z,9.8
2023-03-25T06:45:17.331Z,9.8
2023-03-25T06:46:17.548Z,9.8
2023-03-25T06:47:17.342Z,9.9
2023-03-25T06:48:17.329Z,9.9
2023-03-25T06:49:17.300Z,9.9
2023-03-25T06:50:17.284Z,9.9
2023-03-25T06:51:17.480Z,9.9
2023-03-25T06:52:17.320Z,9.9
2023-03-25T06:53:17.489Z,10.0
2023-03-25T06:54:17.348Z,10.0
2023-03-25T06:55:17.304Z,10.1
2023-03-25T06:56:18.574Z,10.1
2023-03-25T06:57:17.396Z,10.1
2023-03-25T06:58:17.323Z,10.1
2023-03-25T06:59:17.326Z,10.2
2023-03-25T07:00:17.329Z,10.2
2023-03-25T07:01:17.450Z,10.2
2023-03-25T07:02:17.349Z,10.3
2023-03-25T07:03:17.287Z,10.3
2023-03-25T07:04:19.553Z,10.3
2023-03-25T07:05:17.319Z,10.3
2023-03-25T07:06:17.359Z,10.3
2023-03-25T07:07:17.375Z,10.4
2023-03-25T07:08:17.328Z,10.4
2023-03-25T07:09:17.293Z,10.4
2023-03-25T07:14:17.450Z,10.4
2023-03-25T07:15:17.525Z,10.6
2023-03-25T07:16:17.311Z,10.7
2023-03-25T07:17:17.259Z,10.7
2023-03-25T07:18:17.260Z,10.8
2023-03-25T07:19:17.409Z,10.8
2023-03-25T07:20:17.461Z,10.8
2023-03-25T07:21:17.576Z,10.9
2023-03-25T07:22:17.695Z,10.9
2023-03-25T07:23:17.285Z,10.9
2023-03-25T07:24:17.347Z,10.9
2023-03-25T07:25:18.719Z,10.9
2023-03-25T07:26:17.426Z,11.0
2023-03-25T07:27:17.299Z,11.0
2023-03-25T07:28:17.250Z,11.0
2023-03-25T07:29:17.260Z,11.0
2023-03-25T07:30:17.271Z,11.0
2023-03-25T07:31:17.389Z,11.1
2023-03-25T07:32:17.278Z,11.1
2023-03-25T07:33:17.319Z,11.1
2023-03-25T07:34:17.303Z,11.1
2023-03-25T07:35:17.259Z,11.1
2023-03-25T07:36:18.221Z,11.2
2023-03-25T07:37:17.330Z,11.2
2023-03-25T07:38:17.250Z,11.3
2023-03-25T07:39:17.296Z,11.3
2023-03-25T07:40:17.239Z,11.3
2023-03-25T07:41:17.233Z,11.4
2023-03-25T07:42:17.293Z,11.4
2023-03-25T07:43:17.254Z,11.4
2023-03-25T07:44:18.344Z,11.4
2023-03-25T07:45:17.229Z,11.5
2023-03-25T07:46:17.274Z,11.6
2023-03-25T07:47:20.366Z,11.6
2023-03-25T07:48:17.231Z,11.7
2023-03-25T07:49:17.259Z,11.7
2023-03-25T07:50:17.256Z,11.8
2023-03-25T07:51:17.234Z,11.9
2023-03-25T07:52:17.353Z,11.9
2023-03-25T07:53:17.262Z,12.0
2023-03-25T07:54:17.247Z,12.1
2023-03-25T07:55:17.288Z,12.1
2023-03-25T07:56:17.207Z,12.2
2023-03-25T07:57:17.335Z,12.3
2023-03-25T07:58:17.225Z,12.3
2023-03-25T07:59:17.256Z,12.4
2023-03-25T08:00:17.284Z,12.4
2023-03-25T08:01:17.182Z,12.5
2023-03-25T08:02:17.346Z,12.5
2023-03-25T08:03:17.317Z,12.6
2023-03-25T08:04:17.262Z,12.6
2023-03-25T08:05:17.272Z,12.6
2023-03-25T08:06:17.213Z,12.6
2023-03-25T08:07:17.209Z,12.6
2023-03-25T08:08:17.387Z,12.6
2023-03-25T08:09:17.203Z,12.6
2023-03-25T08:10:17.217Z,12.6
2023-03-25T08:11:17.203Z,12.7
2023-03-25T08:12:17.204Z,12.7
2023-03-25T08:13:17.215Z,12.7
2023-03-25T08:14:17.208Z,12.7
2023-03-25T08:15:17.245Z,12.7
2023-03-25T08:16:17.278Z,12.7
2023-03-25T08:17:17.186Z,12.7
2023-03-25T08:18:17.190Z,12.7
2023-03-25T08:19:17.394Z,12.7
2023-03-25T08:20:17.203Z,12.7
2023-03-25T08:21:17.169Z,12.7
2023-03-25T08:22:17.156Z,12.6
2023-03-25T08:23:19.401Z,12.6
2023-03-25T08:24:17.248Z,12.6
2023-03-25T08:25:17.987Z,12.6
2023-03-25T08:26:17.244Z,12.6
2023-03-25T08:27:17.189Z,12.6
2023-03-25T08:28:17.173Z,12.6
2023-03-25T08:29:17.144Z,12.6
2023-03-25T08:30:17.269Z,12.6
2023-03-25T08:31:17.292Z,12.6
2023-03-25T08:32:17.181Z,12.6
2023-03-25T08:33:17.165Z,12.6
2023-03-25T08:34:17.161Z,12.7
2023-03-25T08:35:17.268Z,12.7
2023-03-25T08:36:17.466Z,12.8
2023-03-25T08:37:17.144Z,12.8
2023-03-25T08:38:17.143Z,12.9
2023-03-25T08:39:17.202Z,12.9
2023-03-25T08:40:17.159Z,13.0
2023-03-25T08:41:17.249Z,13.0
2023-03-25T08:42:17.179Z,13.1
2023-03-25T08:43:17.198Z,13.1
2023-03-25T08:44:17.157Z,13.2
2023-03-25T08:45:17.182Z,13.2
2023-03-25T08:46:17.161Z,13.3
2023-03-25T08:47:17.363Z,13.3
2023-03-25T08:48:17.169Z,13.4
2023-03-25T08:49:17.136Z,13.4
2023-03-25T08:50:17.137Z,13.3
2023-03-25T08:51:17.172Z,13.3
2023-03-25T08:52:17.137Z,13.3
2023-03-25T08:53:17.186Z,13.3
2023-03-25T08:54:17.097Z,13.3
2023-03-25T08:55:17.108Z,13.3
2023-03-25T08:56:17.084Z,13.3
2023-03-25T08:57:17.194Z,13.3
2023-03-25T08:58:17.411Z,13.3
2023-03-25T08:59:17.129Z,13.3
2023-03-25T09:00:17.161Z,13.3
2023-03-25T09:01:17.280Z,13.3
2023-03-25T09:02:17.094Z,13.3
2023-03-25T09:03:17.089Z,13.3
2023-03-25T09:04:17.207Z,13.3
2023-03-25T09:05:17.207Z,13.3
2023-03-25T09:06:17.225Z,13.3
2023-03-25T09:07:17.124Z,13.3
2023-03-25T09:08:17.108Z,13.3
2023-03-25T09:09:17.253Z,13.3
2023-03-25T09:10:17.199Z,13.4
2023-03-25T09:11:24.292Z,13.4
2023-03-25T09:12:17.167Z,13.4
2023-03-25T09:13:17.103Z,13.4
2023-03-25T09:14:17.074Z,13.5
2023-03-25T09:15:17.088Z,13.5
2023-03-25T09:16:17.146Z,13.6
2023-03-25T09:17:17.277Z,13.6
2023-03-25T09:18:17.132Z,13.6
2023-03-25T09:19:17.092Z,13.7
2023-03-25T09:20:17.079Z,13.7
2023-03-25T09:21:17.099Z,13.8
2023-03-25T09:22:17.161Z,13.8
2023-03-25T09:23:17.113Z,13.9
2023-03-25T09:24:17.088Z,13.9
2023-03-25T09:25:17.067Z,14.0
2023-03-25T09:26:17.085Z,14.0
2023-03-25T09:27:17.134Z,14.1
2023-03-25T09:28:17.167Z,14.1
2023-03-25T09:29:17.125Z,14.1
2023-03-25T09:30:17.166Z,14.2
2023-03-25T09:31:17.328Z,14.2
2023-03-25T09:32:17.136Z,14.3
2023-03-25T09:33:17.269Z,14.3
2023-03-25T09:34:17.059Z,14.3
2023-03-25T09:35:17.198Z,14.4
2023-03-25T09:36:17.127Z,14.4
2023-03-25T09:37:17.125Z,14.4
2023-03-25T09:38:17.087Z,14.4
2023-03-25T09:39:17.046Z,14.4
2023-03-25T09:40:17.035Z,14.4
2023-03-25T09:41:17.129Z,14.4
2023-03-25T09:42:17.331Z,14.4
2023-03-25T09:43:17.075Z,14.4
2023-03-25T09:44:17.034Z,14.4
2023-03-25T09:45:17.035Z,14.4
2023-03-25T09:46:17.149Z,14.4
2023-03-25T09:47:17.075Z,14.3
2023-03-25T09:48:17.032Z,14.3
2023-03-25T09:49:17.050Z,14.3
2023-03-25T09:50:17.021Z,14.2
2023-03-25T09:51:17.066Z,14.2
2023-03-25T09:52:17.212Z,14.1
2023-03-25T09:53:17.145Z,14.2
2023-03-25T09:54:17.023Z,14.2
2023-03-25T09:55:17.042Z,14.3
2023-03-25T09:56:17.054Z,14.3
2023-03-25T09:57:17.094Z,14.4
2023-03-25T09:58:17.129Z,14.4
2023-03-25T09:59:17.034Z,14.5
2023-03-25T10:00:17.101Z,14.5
2023-03-25T10:01:17.107Z,14.5
2023-03-25T10:02:17.055Z,14.5
2023-03-25T10:03:17.096Z,14.5
2023-03-25T10:04:17.100Z,14.5
2023-03-25T10:05:17.102Z,14.5
2023-03-25T10:06:17.040Z,14.6
2023-03-25T10:07:17.030Z,14.6
2023-03-25T10:08:17.031Z,14.6
2023-03-25T10:09:17.021Z,14.6
2023-03-25T10:10:17.085Z,14.7
2023-03-25T10:11:17.038Z,14.7
2023-03-25T10:12:17.022Z,14.7
2023-03-25T10:13:19.343Z,14.7
2023-03-25T10:14:17.014Z,14.6
2023-03-25T10:15:16.985Z,14.6
2023-03-25T10:16:17.077Z,14.6
2023-03-25T10:17:17.034Z,14.6
2023-03-25T10:18:17.021Z,14.5
2023-03-25T10:19:17.075Z,14.5
2023-03-25T10:20:16.987Z,14.5
2023-03-25T10:21:17.156Z,14.4
2023-03-25T10:22:17.019Z,14.4
2023-03-25T10:23:17.015Z,14.3
2023-03-25T10:24:17.003Z,14.2
2023-03-25T10:25:17.071Z,14.1
2023-03-25T10:26:17.198Z,14.1
2023-03-25T10:27:16.975Z,14.0
2023-03-25T10:28:16.993Z,13.9
2023-03-25T10:29:16.972Z,13.8
2023-03-25T10:30:17.188Z,13.6
2023-03-25T10:31:17.065Z,13.5
2023-03-25T10:32:17.039Z,13.4
2023-03-25T10:33:16.986Z,13.3
2023-03-25T10:34:17.011Z,13.2
2023-03-25T10:35:17.145Z,13.2
2023-03-25T10:36:16.988Z,13.1
2023-03-25T10:37:17.103Z,13.0
2023-03-25T10:38:17.006Z,12.9
2023-03-25T10:39:16.956Z,12.9
2023-03-25T10:40:17.659Z,12.8
2023-03-25T10:41:16.999Z,12.8
2023-03-25T10:42:17.044Z,12.7
2023-03-25T10:43:16.938Z,12.6
2023-03-25T10:44:16.984Z,12.5
2023-03-25T10:45:17.050Z,12.4
2023-03-25T10:46:17.032Z,12.4
2023-03-25T10:47:17.081Z,12.3
2023-03-25T10:48:17.160Z,12.2
2023-03-25T10:49:16.972Z,12.2
2023-03-25T10:50:16.983Z,12.1
2023-03-25T10:51:16.938Z,12.1
2023-03-25T10:52:17.049Z,12.0
2023-03-25T10:53:16.975Z,12.0
2023-03-25T10:54:17.004Z,11.9
2023-03-25T10:55:16.998Z,11.8
2023-03-25T10:56:16.974Z,11.8
2023-03-25T10:57:16.938Z,11.7
2023-03-25T10:58:17.018Z,11.7
2023-03-25T10:59:18.746Z,11.6
2023-03-25T11:00:16.915Z,11.6
2023-03-25T11:01:17.073Z,11.5
2023-03-25T11:02:16.951Z,11.4
2023-03-25T11:03:17.040Z,11.4
2023-03-25T11:04:16.963Z,11.3
2023-03-25T11:05:18.787Z,11.3
2023-03-25T11:06:16.977Z,11.2
2023-03-25T11:07:16.930Z,11.2
2023-03-25T11:08:24.625Z,11.2
2023-03-25T11:09:16.928Z,11.2
2023-03-25T11:10:17.141Z,11.2
2023-03-25T11:11:16.904Z,11.3
2023-03-25T11:12:16.889Z,11.3
2023-03-25T11:13:16.944Z,11.3
2023-03-25T11:14:16.953Z,11.3
2023-03-25T11:15:17.013Z,11.4
2023-03-25T11:16:16.973Z,11.4
2023-03-25T11:17:16.901Z,11.5
2023-03-25T11:18:16.944Z,11.6
2023-03-25T11:19:16.877Z,11.7
2023-03-25T11:20:16.868Z,11.8
2023-03-25T11:21:17.125Z,11.9
2023-03-25T11:22:16.975Z,12.0
2023-03-25T11:23:16.895Z,12.0
2023-03-25T11:24:16.916Z,12.1
2023-03-25T11:25:16.920Z,12.1
2023-03-25T11:26:16.871Z,12.2
2023-03-25T11:27:16.925Z,12.2
2023-03-25T11:28:16.920Z,12.3
2023-03-25T11:29:16.923Z,12.4
2023-03-25T11:30:16.933Z,12.5
2023-03-25T11:31:16.917Z,12.6
2023-03-25T11:32:16.918Z,12.7
2023-03-25T11:33:16.907Z,12.8
2023-03-25T11:34:16.978Z,13.0
2023-03-25T11:35:16.891Z,13.1
2023-03-25T11:36:16.881Z,13.3
2023-03-25T11:37:16.936Z,13.4
2023-03-25T11:38:16.887Z,13.5
2023-03-25T11:39:16.889Z,13.6
2023-03-25T11:40:16.882Z,13.7
2023-03-25T11:41:16.860Z,13.9
2023-03-25T11:42:17.051Z,13.9
2023-03-25T11:43:16.892Z,14.0
2023-03-25T11:44:16.876Z,14.1
2023-03-25T11:45:16.846Z,14.2
2023-03-25T11:46:16.997Z,14.3
2023-03-25T11:47:16.887Z,14.4
2023-03-25T11:48:16.890Z,14.4
2023-03-25T11:49:16.905Z,14.5
2023-03-25T11:50:16.848Z,14.5
2023-03-25T11:51:16.863Z,14.5
2023-03-25T11:52:16.891Z,14.6
2023-03-25T11:53:17.165Z,14.6
2023-03-25T11:54:16.947Z,14.6
2023-03-25T11:55:16.831Z,14.5
2023-03-25T11:56:16.871Z,14.5
2023-03-25T11:57:16.973Z,14.4
2023-03-25T11:58:16.975Z,14.4
2023-03-25T11:59:17.985Z,14.3
2023-03-25T12:00:18.202Z,14.3
2023-03-25T12:01:16.972Z,14.2
2023-03-25T12:02:16.966Z,14.1
2023-03-25T12:03:18.898Z,14.0
2023-03-25T12:04:17.060Z,13.9
2023-03-25T12:05:16.891Z,13.9
2023-03-25T12:06:16.962Z,13.8
2023-03-25T12:07:16.854Z,13.8
2023-03-25T12:08:16.846Z,13.8
2023-03-25T12:09:16.943Z,13.8
2023-03-25T12:10:16.829Z,13.8
2023-03-25T12:11:16.808Z,13.8
2023-03-25T12:12:16.953Z,13.8
2023-03-25T12:13:16.846Z,13.8
2023-03-25T12:14:16.862Z,13.8
2023-03-25T12:15:16.937Z,13.8
2023-03-25T12:16:16.880Z,13.8
2023-03-25T12:17:16.854Z,13.9
2023-03-25T12:18:16.900Z,13.9
2023-03-25T12:19:16.890Z,14.0
2023-03-25T12:20:16.913Z,14.1
2023-03-25T12:21:16.813Z,14.1
2023-03-25T12:22:16.799Z,14.0
2023-03-25T12:23:16.807Z,14.0
2023-03-25T12:24:16.901Z,13.9
2023-03-25T12:25:16.780Z,13.8
2023-03-25T12:26:17.006Z,13.7
2023-03-25T12:27:16.816Z,13.6
2023-03-25T12:28:17.642Z,13.6
2023-03-25T12:29:17.603Z,13.5
2023-03-25T12:30:17.517Z,13.4
2023-03-25T12:31:17.643Z,13.4
2023-03-25T12:32:17.608Z,13.3
2023-03-25T12:33:17.711Z,13.3
2023-03-25T12:34:17.511Z,13.2
2023-03-25T12:35:17.557Z,13.2
2023-03-25T12:36:17.572Z,13.1
2023-03-25T12:37:17.507Z,13.1
2023-03-25T12:38:17.561Z,13.0
2023-03-25T12:39:17.539Z,13.0
2023-03-25T12:40:17.487Z,12.9
2023-03-25T12:41:17.587Z,12.9
2023-03-25T12:42:16.810Z,12.9
2023-03-25T12:43:16.796Z,12.8
2023-03-25T12:44:16.831Z,12.8
2023-03-25T12:45:16.785Z,12.8
2023-03-25T12:46:16.797Z,12.8
2023-03-25T12:47:16.839Z,12.8
2023-03-25T12:48:16.798Z,12.7
2023-03-25T12:49:16.837Z,12.7
2023-03-25T12:50:16.779Z,12.7
2023-03-25T12:51:16.777Z,12.7
2023-03-25T12:52:16.979Z,12.7
2023-03-25T12:53:16.807Z,12.7
2023-03-25T12:54:16.890Z,12.7
2023-03-25T12:55:16.745Z,12.6
2023-03-25T12:56:16.750Z,12.6
2023-03-25T12:57:16.785Z,12.6
2023-03-25T12:58:16.821Z,12.6
2023-03-25T12:59:16.745Z,12.6
2023-03-25T13:00:16.744Z,12.5
2023-03-25T13:01:16.810Z,12.5
2023-03-25T13:02:16.894Z,12.5
2023-03-25T13:03:17.012Z,12.4
2023-03-25T13:04:16.766Z,12.4
2023-03-25T13:05:16.739Z,12.4
2023-03-25T13:06:17.138Z,12.3
2023-03-25T13:07:16.738Z,12.3
2023-03-25T13:08:16.752Z,12.3
2023-03-25T13:09:16.817Z,12.3
2023-03-25T13:10:17.062Z,12.4
2023-03-25T13:11:16.762Z,12.5
2023-03-25T13:12:16.830Z,12.6
2023-03-25T13:13:16.724Z,12.7
2023-03-25T13:14:16.971Z,12.8
2023-03-25T13:15:24.686Z,12.8
2023-03-25T13:16:16.804Z,12.9
2023-03-25T13:17:16.849Z,12.9
2023-03-25T13:18:16.971Z,13.0
2023-03-25T13:19:16.736Z,13.1
2023-03-25T13:20:16.695Z,13.1
2023-03-25T13:21:16.718Z,13.2
2023-03-25T13:22:16.801Z,13.3
2023-03-25T13:23:16.722Z,13.3
2023-03-25T13:24:16.746Z,13.3
2023-03-25T13:25:16.824Z,13.3
2023-03-25T13:26:16.716Z,13.4
2023-03-25T13:27:16.844Z,13.4
2023-03-25T13:28:16.710Z,13.4
2023-03-25T13:29:16.786Z,13.5
2023-03-25T13:30:17.097Z,13.5